createdAt,value
2019-01-29T00:03:50.101Z,1.98
2019-01-29T00:08:55.560Z,1.70
2019-01-29T00:14:01.284Z,1.95
2019-01-29T00:19:06.917Z,1.98
2019-01-29T00:24:12.430Z,1.90
2019-01-29T00:29:19.256Z,2.02
2019-01-29T00:34:24.738Z,1.92
2019-01-29T00:39:30.847Z,2.12
2019-01-29T00:44:37.319Z,1.87
2019-01-29T00:49:42.868Z,2.37
2019-01-29T00:54:49.163Z,1.98
2019-01-29T00:59:55.471Z,2.00
2019-01-29T01:05:01.956Z,1.67
2019-01-29T01:10:08.408Z,1.95
2019-01-29T01:15:14.271Z,1.70
2019-01-29T01:20:20.536Z,1.67
2019-01-29T01:25:26.894Z,2.20
2019-01-29T01:30:33.217Z,1.95
2019-01-29T01:35:38.924Z,2.00
2019-01-29T01:40:44.664Z,2.05
2019-01-29T01:45:50.276Z,1.80
2019-01-29T01:50:56.007Z,1.85
2019-01-29T01:56:02.064Z,1.85
2019-01-29T02:01:08.466Z,1.80
2019-01-29T02:06:14.597Z,1.92
2019-01-29T02:11:20.696Z,1.80
2019-01-29T02:16:26.066Z,1.45
2019-01-29T02:21:32.346Z,1.45
2019-01-29T02:26:38.656Z,1.47
2019-01-29T02:31:45.054Z,1.77
2019-01-29T02:36:50.969Z,1.60
2019-01-29T02:41:56.566Z,1.37
2019-01-29T02:47:02.497Z,1.87
2019-01-29T02:52:09.076Z,1.70
2019-01-29T02:57:15.026Z,1.70
2019-01-29T03:02:21.426Z,1.60
2019-01-29T03:07:27.522Z,1.32
2019-01-29T03:12:33.586Z,1.25
2019-01-29T03:17:39.653Z,1.75
2019-01-29T03:22:45.996Z,1.32
2019-01-29T03:27:52.066Z,1.70
2019-01-29T03:32:58.218Z,1.40
2019-01-29T03:38:04.105Z,1.50
2019-01-29T03:43:10.319Z,1.22
2019-01-29T03:48:16.637Z,1.52
2019-01-29T03:53:22.966Z,1.62
2019-01-29T03:58:29.127Z,1.82
2019-01-29T04:03:35.246Z,1.25
2019-01-29T04:08:40.937Z,1.30
2019-01-29T04:13:48.118Z,1.47
2019-01-29T04:18:54.216Z,1.42
2019-01-29T04:24:00.526Z,1.35
2019-01-29T04:29:06.606Z,1.22
2019-01-29T04:34:12.997Z,1.55
2019-01-29T04:39:19.372Z,1.35
2019-01-29T04:44:25.521Z,1.40
2019-01-29T04:49:33.386Z,1.70
2019-01-29T04:54:39.327Z,1.20
2019-01-29T04:59:45.716Z,1.10
2019-01-29T05:04:52.076Z,1.52
2019-01-29T05:09:58.470Z,1.55
2019-01-29T05:15:04.575Z,1.45
2019-01-29T05:20:12.727Z,1.30
2019-01-29T05:25:18.807Z,1.30
2019-01-29T05:30:26.347Z,1.35
2019-01-29T05:35:32.676Z,1.10
2019-01-29T05:40:39.086Z,1.22
2019-01-29T05:45:45.356Z,1.35
2019-01-29T05:50:51.109Z,1.10
2019-01-29T05:55:57.459Z,1.42
2019-01-29T06:01:03.647Z,1.17
2019-01-29T06:06:10.037Z,1.50
2019-01-29T06:11:16.276Z,1.15
2019-01-29T06:16:22.506Z,0.98
2019-01-29T06:21:28.568Z,1.22
2019-01-29T06:26:34.405Z,1.25
2019-01-29T06:31:40.196Z,1.15
2019-01-29T06:36:46.416Z,1.10
2019-01-29T06:41:52.655Z,1.10
2019-01-29T06:46:59.136Z,1.20
2019-01-29T06:52:05.596Z,1.50
2019-01-29T06:57:11.476Z,1.20
2019-01-29T07:02:17.736Z,1.20
2019-01-29T07:07:24.126Z,1.27
2019-01-29T07:12:30.536Z,1.80
2019-01-29T07:17:39.936Z,1.10
2019-01-29T07:22:46.576Z,1.20
2019-01-29T07:27:52.476Z,1.25
2019-01-29T07:32:58.806Z,1.37
2019-01-29T07:38:04.807Z,1.32
2019-01-29T07:43:11.216Z,1.62
2019-01-29T07:48:18.016Z,1.40
2019-01-29T07:53:23.930Z,1.62
2019-01-29T07:58:30.006Z,1.12
2019-01-29T08:03:38.214Z,1.37
2019-01-29T08:08:44.336Z,1.45
2019-01-29T08:13:50.606Z,1.27
2019-01-29T08:18:57.018Z,1.25
2019-01-29T08:24:03.135Z,1.17
2019-01-29T08:29:09.036Z,1.98
